Latest Weather Observations for Moomba Airport

IDS60801

Issued at 7:01 pm CDT Thursday 19 January 2017 (issued every 30 minutes, with the page automatically refreshed every 10 minutes)

About weather observations | Map of weather stations | Latest weather observations for SA | Other Formats
Station Details ID: 017123 Name: MOOMBA AIRPORT Lat: -28.10 Lon: 140.20 Height: 37.8 m
Data from the previous 72 hours. | See also: Recent months at Moomba Airport
Date/Time
CDT
Temp
°C
App
Temp
°C
Dew
Point
°C
Rel
Hum
%
Delta-T
°C
Wind Press
QNH
hPa
Press
MSL
hPa
Rain since
9am
mm
Dir  Spd
km/h
Gust
km/h
Spd
kts
Gust
kts
19/07:00pm 42.2 40.2 17.4 23 16.4 NW 24 33 13 18 999.7 999.4 0.0
19/06:30pm 42.4 40.2 16.9 22 16.8 NW 24 32 13 17 999.7 999.4 0.0
19/06:00pm 43.0 41.4 17.4 22 17.0 NNW 22 32 12 17 999.6 999.3 0.0
19/05:30pm 42.8 40.0 17.2 22 16.9 NW 28 48 15 26 999.9 999.6 0.0
19/05:28pm 43.0 40.2 17.4 22 16.9 NW 28 48 15 26 1000.0 999.7 0.0
19/05:27pm 43.4 40.5 17.0 21 17.3 NW 28 48 15 26 999.9 999.6 0.0
19/05:00pm 43.2 41.7 17.6 23 16.9 NNW 22 30 12 16 1000.4 1000.1 0.0
19/04:30pm 43.1 40.7 18.2 24 16.7 N 28 35 15 19 1001.0 1000.7 0.0
19/04:06pm 42.8 40.2 18.6 25 16.2 NNW 30 52 16 28 1001.3 1001.0 0.0
19/04:00pm 42.3 39.8 18.1 24 16.1 NNW 28 37 15 20 1001.4 1001.1 0.0
19/03:30pm 43.1 41.1 18.2 24 16.6 WNW 26 37 14 20 1002.1 1001.8 0.0
19/03:00pm 43.2 42.2 18.9 24 16.4 NW 22 39 12 21 1002.7 1002.4 0.0
19/02:30pm 42.3 41.9 18.8 26 15.8 WNW 19 30 10 16 1003.4 1003.1 0.0
19/02:00pm 42.7 41.4 19.1 25 15.9 NNW 24 41 13 22 1004.2 1003.9 0.0
19/01:30pm 41.5 40.3 19.3 27 15.0 NNW 24 37 13 20 1004.9 1004.6 0.0
19/01:00pm 41.0 39.3 18.9 28 14.8 NW 26 39 14 21 1005.6 1005.3 0.0
19/12:30pm 40.5 39.2 19.0 28 14.4 NNW 24 35 13 19 1006.0 1005.7 0.0
19/12:00pm 40.1 39.4 20.2 31 13.5 NW 24 37 13 20 1006.3 1006.0 0.0
19/11:30am 39.5 38.0 20.2 32 13.1 NW 28 43 15 23 1006.6 1006.3 0.0
19/11:00am 39.0 37.2 20.3 34 12.7 NNW 30 44 16 24 1006.9 1006.6 0.0
19/10:30am 38.0 36.2 20.3 35 12.0 NNW 30 44 16 24 1007.1 1006.8 0.0
19/10:00am 37.4 35.4 20.7 38 11.3 N 32 39 17 21 1007.3 1007.0 0.0
19/09:30am 35.8 33.7 21.6 43 9.7 N 35 43 19 23 1007.4 1007.1 0.0
19/09:00am 34.2 32.8 21.9 48 8.4 N 32 41 17 22 1007.6 1007.3 0.0
19/08:30am 32.7 31.5 22.2 54 7.2 N 32 39 17 21 1007.7 1007.4 0.0
19/08:00am 31.8 31.3 22.2 56 6.5 N 28 35 15 19 1007.7 1007.4 0.0
19/07:30am 30.3 31.1 22.5 63 5.3 NNE 22 28 12 15 1007.6 1007.3 0.0
19/07:00am 29.4 30.7 22.6 67 4.6 NNE 20 24 11 13 1007.6 1007.3 0.0
19/06:30am 29.0 30.5 22.7 69 4.3 NNE 19 24 10 13 1007.5 1007.2 0.0
19/06:00am 29.0 29.9 22.7 69 4.3 NE 22 28 12 15 1007.2 1006.9 0.0
19/05:30am 29.1 29.6 22.6 68 4.4 NE 24 32 13 17 1006.8 1006.5 0.0
19/05:00am 29.2 29.7 22.7 68 4.4 ENE 24 30 13 16 1006.6 1006.3 0.0
19/04:30am 29.4 30.2 23.1 69 4.3 ENE 24 32 13 17 1006.7 1006.4 0.0
19/04:00am 29.5 30.2 23.0 68 4.5 ENE 24 37 13 20 1006.8 1006.5 0.0
19/03:30am 29.7 29.0 23.2 68 4.5 ENE 32 43 17 23 1007.0 1006.7 0.0
19/03:00am 29.9 28.6 23.1 67 4.7 ENE 35 44 19 24 1007.1 1006.8 0.0
19/02:30am 30.1 29.3 23.0 65 4.9 E 32 43 17 23 1007.2 1006.9 0.0
19/02:00am 30.3 29.7 22.7 64 5.2 E 30 41 16 22 1007.5 1007.2 0.0
19/01:30am 30.7 30.6 22.3 61 5.7 ESE 26 35 14 19 1007.4 1007.1 0.0
19/01:00am 31.4 31.5 21.8 56 6.5 ESE 24 30 13 16 1007.5 1007.2 0.0
19/12:30am 32.1 31.7 21.6 53 7.1 E 26 33 14 18 1007.4 1007.1 0.0
19/12:00am 32.5 31.4 21.7 53 7.3 E 30 35 16 19 1007.5 1007.2 0.0
 
Date/Time
CDT
Temp
°C
App
Temp
°C
Dew
Point
°C
Rel
Hum
%
Delta-T
°C
Wind Press
QNH
hPa
Press
MSL
hPa
Rain since
9am
mm
Dir  Spd
km/h
Gust
km/h
Spd
kts
Gust
kts
18/11:30pm 33.3 32.6 21.8 51 7.8 E 28 35 15 19 1007.9 1007.6 0.0
18/11:00pm 34.5 32.9 20.8 44 9.2 ESE 30 39 16 21 1007.8 1007.5 0.0
18/10:30pm 34.9 32.6 20.1 42 9.9 ESE 32 43 17 23 1007.4 1007.1 0.0
18/10:00pm 36.9 36.7 19.4 36 11.7 S 19 32 10 17 1006.7 1006.4 0.0
18/09:30pm 38.4 39.2 17.2 28 13.8 NW 9 11 5 6 1006.4 1006.1 0.0
18/09:00pm 39.1 39.1 17.2 27 14.3 NW 13 17 7 9 1006.2 1005.9 0.0
18/08:30pm 39.6 39.6 17.1 26 14.7 NW 13 17 7 9 1005.8 1005.5 0.0
18/08:00pm 40.2 40.0 17.6 26 14.8 NNW 15 19 8 10 1005.5 1005.2 0.0
18/07:30pm 40.9 39.7 17.0 25 15.6 NW 19 28 10 15 1005.3 1005.0 0.0
18/07:00pm 41.6 39.8 16.9 23 16.1 NW 22 32 12 17 1004.8 1004.5 0.0
18/06:30pm 41.9 41.1 17.2 24 16.2 NW 17 26 9 14 1004.7 1004.4 0.0
18/06:00pm 41.6 40.7 16.9 23 16.2 N 17 30 9 16 1004.4 1004.1 0.0
18/05:30pm 42.1 40.4 17.3 23 16.3 NNW 22 35 12 19 1004.7 1004.4 0.0
18/05:00pm 41.7 40.7 17.6 24 15.9 NE 19 33 10 18 1004.8 1004.5 0.0
18/04:30pm 43.0 41.9 17.4 22 16.9 NNW 19 35 10 19 1005.3 1005.0 0.0
18/04:00pm 42.0 40.7 17.2 23 16.3 NW 20 43 11 23 1005.6 1005.3 0.0
18/03:30pm 42.4 42.2 17.6 24 16.4 NNW 15 32 8 17 1006.3 1006.0 0.0
18/03:00pm 42.0 41.5 17.9 24 16.0 NNW 17 28 9 15 1006.6 1006.3 0.0
18/02:30pm 41.7 41.4 18.3 26 15.6 N 17 26 9 14 1007.2 1006.9 0.0
18/02:00pm 41.4 41.4 18.0 25 15.5 NW 15 26 8 14 1007.6 1007.3 0.0
18/01:30pm 40.5 39.7 17.9 27 14.9 NNW 19 32 10 17 1008.1 1007.8 0.0
18/01:00pm 40.9 40.0 18.2 26 15.0 NNE 20 37 11 20 1008.5 1008.2 0.0
18/12:30pm 39.4 39.1 19.1 30 13.6 NW 19 32 10 17 1008.8 1008.5 0.0
18/12:00pm 39.9 39.8 19.6 31 13.7 N 19 30 10 16 1009.3 1009.0 0.0
18/11:30am 39.0 38.8 19.8 32 12.9 NNW 20 35 11 19 1009.5 1009.2 0.0
18/11:00am 38.9 38.5 20.2 33 12.6 NNW 22 33 12 18 1009.7 1009.4 0.0
18/10:30am 37.7 37.3 20.1 36 11.9 NNW 22 32 12 17 1010.0 1009.7 0.0
18/10:00am 37.5 36.8 20.3 36 11.6 NNW 24 30 13 16 1010.0 1009.7 0.0
18/09:30am 37.7 36.1 20.1 36 11.9 NNW 28 35 15 19 1010.1 1009.8 0.0
18/09:00am 37.1 36.1 20.4 37 11.3 NNW 26 32 14 17 1010.1 1009.8 0.0
18/08:30am 35.4 34.4 20.5 41 10.0 NNW 26 33 14 18 1009.9 1009.6 0.0
18/08:00am 34.3 34.5 21.4 47 8.8 N 22 28 12 15 1009.8 1009.5 0.0
18/07:30am 33.2 33.6 21.0 48 8.2 N 20 24 11 13 1009.6 1009.3 0.0
18/07:00am 32.5 33.5 21.0 50 7.7 N 17 20 9 11 1009.3 1009.0 0.0
18/06:30am 32.2 32.7 20.8 51 7.6 N 19 22 10 12 1008.8 1008.5 0.0
18/06:00am 32.2 33.1 20.8 51 7.6 N 17 22 9 12 1008.3 1008.0 0.0
18/05:30am 32.2 32.9 20.5 50 7.8 N 17 20 9 11 1007.8 1007.5 0.0
18/05:00am 32.4 32.9 20.0 48 8.2 N 17 20 9 11 1007.5 1007.2 0.0
18/04:30am 32.5 33.2 19.7 46 8.5 N 15 19 8 10 1007.2 1006.9 0.0
18/04:00am 32.7 33.6 19.2 44 8.9 N 13 17 7 9 1007.1 1006.8 0.0
18/03:30am 33.5 33.6 19.2 43 9.4 N 17 22 9 12 1007.1 1006.8 0.0
18/03:00am 33.5 34.0 19.2 43 9.4 N 15 17 8 9 1007.3 1007.0 0.0
18/02:30am 34.0 34.5 19.3 42 9.7 N 15 19 8 10 1007.4 1007.1 0.0
18/02:00am 34.0 34.9 19.3 42 9.7 N 13 15 7 8 1007.5 1007.2 0.0
18/01:30am 34.4 35.3 19.2 40 10.0 N 13 17 7 9 1007.6 1007.3 0.0
18/01:00am 34.7 35.3 19.5 40 10.1 N 15 19 8 10 1007.6 1007.3 0.0
18/12:30am 35.2 35.5 19.6 40 10.4 N 17 20 9 11 1007.5 1007.2 0.0
18/12:00am 35.8 35.2 19.7 39 10.7 N 22 30 12 16 1007.6 1007.3 0.0
 
Date/Time
CDT
Temp
°C
App
Temp
°C
Dew
Point
°C
Rel
Hum
%
Delta-T
°C
Wind Press
QNH
hPa
Press
MSL
hPa
Rain since
9am
mm
Dir  Spd
km/h
Gust
km/h
Spd
kts
Gust
kts
17/11:30pm 36.3 35.7 18.4 35 11.8 N 19 28 10 15 1007.7 1007.4 0.0
17/11:00pm 36.2 36.5 17.8 33 12.0 N 13 15 7 8 1007.5 1007.2 0.0
17/10:30pm 36.7 36.4 17.3 31 12.6 N 15 17 8 9 1007.3 1007.0 0.0
17/10:00pm 37.4 37.1 17.4 30 13.0 N 15 17 8 9 1007.1 1006.8 0.0
17/09:30pm 37.9 37.6 17.3 29 13.4 N 15 17 8 9 1006.8 1006.5 0.0
17/09:00pm 38.3 37.9 17.1 28 13.8 N 15 19 8 10 1006.5 1006.2 0.0
17/08:30pm 39.0 38.5 17.7 28 14.0 N 17 20 9 11 1006.1 1005.8 0.0
17/08:00pm 39.6 38.1 17.7 28 14.4 N 22 28 12 15 1005.7 1005.4 0.0
17/07:30pm 40.6 39.6 17.9 26 15.0 NNE 20 30 11 16 1005.4 1005.1 0.0
17/07:00pm 40.9 39.1 17.0 25 15.6 N 22 30 12 16 1005.2 1004.9 0.0
17/06:30pm 41.7 40.5 17.0 23 16.2 N 19 28 10 15 1005.1 1004.8 0.0
17/06:00pm 41.1 39.9 17.1 24 15.7 N 19 28 10 15 1005.1 1004.8 0.0
17/05:30pm 41.8 40.3 17.7 24 15.9 N 22 32 12 17 1005.2 1004.9 0.0
17/05:00pm 42.3 40.1 16.8 22 16.7 NNE 24 32 13 17 1005.5 1005.2 0.0
17/04:30pm 41.8 39.9 17.7 24 15.9 NNE 24 35 13 19 1005.8 1005.5 0.0
17/04:00pm 42.0 40.2 17.9 24 16.0 NNE 24 37 13 20 1005.9 1005.6 0.0
17/03:30pm 41.3 39.9 17.9 25 15.5 N 22 35 12 19 1006.2 1005.9 0.0
17/03:00pm 42.3 41.0 18.1 24 16.1 N 22 44 12 24 1006.7 1006.4 0.0
17/02:30pm 41.6 40.6 18.8 26 15.3 N 22 39 12 21 1007.2 1006.9 0.0
17/02:00pm 41.1 39.7 18.9 27 14.8 NNE 24 35 13 19 1007.7 1007.4 0.0
17/01:30pm 39.8 38.7 19.5 31 13.7 N 24 37 13 20 1008.0 1007.7 0.0
17/01:00pm 40.0 39.7 19.6 30 13.7 NNW 20 33 11 18 1008.4 1008.1 0.0
17/12:30pm 39.0 38.2 19.3 31 13.2 NNE 22 35 12 19 1008.7 1008.4 0.0
17/12:00pm 38.6 37.3 19.9 33 12.6 N 26 41 14 22 1009.2 1008.9 0.0
17/11:30am 38.4 36.7 19.7 33 12.6 N 28 37 15 20 1009.5 1009.2 0.0
17/11:00am 38.5 37.8 20.3 34 12.3 NNE 24 33 13 18 1009.7 1009.4 0.0
17/10:30am 37.6 35.6 20.0 36 11.8 N 30 41 16 22 1009.8 1009.5 0.0
17/10:00am 37.3 36.5 20.1 36 11.6 N 24 32 13 17 1009.7 1009.4 0.0
17/09:30am 36.5 35.8 20.3 38 10.9 N 24 33 13 18 1009.6 1009.3 0.0
17/09:00am 35.6 35.3 20.3 40 10.3 N 22 28 12 15 1009.5 1009.2 0.0
17/08:30am 35.0 35.0 20.2 42 9.9 N 20 26 11 14 1009.1 1008.8 0.0
17/08:00am 33.9 34.0 18.4 40 10.1 N 15 19 8 10 1008.9 1008.6 0.0
17/07:30am 31.5 29.7 13.3 33 10.9 N 15 19 8 10 1008.7 1008.4 0.0
17/07:00am 30.2 27.3 8.0 25 12.2 N 13 17 7 9 1008.2 1007.9 0.0
17/06:30am 29.6 26.6 7.5 25 12.0 N 13 17 7 9 1007.7 1007.4 0.0
17/06:00am 29.5 25.7 5.6 22 12.6 NNE 15 17 8 9 1007.1 1006.8 0.0
17/05:30am 29.1 25.9 5.2 22 12.5 NE 11 17 6 9 1006.6 1006.3 0.0
17/05:00am 27.7 23.6 -0.4 16 13.1 ENE 11 13 6 7 1006.3 1006.0 0.0
17/04:30am 28.1 24.4 -0.1 16 13.3 E 9 11 5 6 1006.3 1006.0 0.0
17/04:00am 28.3 24.5 -0.8 15 13.5 ESE 9 13 5 7 1006.1 1005.8 0.0
17/03:30am 28.0 24.2 -1.0 15 13.5 ESE 9 11 5 6 1006.2 1005.9 0.0
17/03:00am 26.8 23.5 -1.1 16 12.8 ESE 6 7 3 4 1006.2 1005.9 0.0
17/02:30am 27.2 24.6 -1.7 15 13.2 ENE 2 6 1 3 1006.3 1006.0 0.0
17/02:00am 27.3 23.3 -2.5 14 13.4 NE 9 11 5 6 1006.4 1006.1 0.0
17/01:30am 28.8 24.0 -2.3 13 14.2 NE 13 24 7 13 1006.4 1006.1 0.0
17/01:00am 28.2 23.6 -3.9 12 14.1 ESE 11 13 6 7 1006.3 1006.0 0.0
17/12:30am 30.2 25.3 -3.5 11 15.2 ESE 13 15 7 8 1006.3 1006.0 0.0
17/12:00am 32.1 27.2 -3.3 10 16.3 SE 13 17 7 9 1006.4 1006.1 0.0
 
Date/Time
CDT
Temp
°C
App
Temp
°C
Dew
Point
°C
Rel
Hum
%
Delta-T
°C
Wind Press
QNH
hPa
Press
MSL
hPa
Rain since
9am
mm
Dir  Spd
km/h
Gust
km/h
Spd
kts
Gust
kts
16/11:30pm 33.8 28.1 -3.5 9 17.3 SE 17 20 9 11 1006.5 1006.2 0.0
16/11:00pm 34.6 29.0 -2.9 9 17.6 SSE 17 24 9 13 1006.4 1006.1 0.0
16/10:30pm 35.2 29.3 -2.4 9 18.0 SSE 19 22 10 12 1006.4 1006.1 0.0
16/10:00pm 37.1 31.5 -2.6 8 19.1 SE 17 24 9 13 1006.3 1006.0 0.0
16/09:30pm 37.3 32.1 -2.4 8 19.2 SE 15 20 8 11 1006.2 1005.9 0.0
16/09:00pm 37.3 32.1 -2.4 8 19.2 SE 15 19 8 10 1006.1 1005.8 0.0
16/08:30pm 39.0 33.4 -3.0 7 20.4 SE 17 22 9 12 1005.8 1005.5 0.0
16/08:00pm 39.3 34.5 -2.8 7 20.5 SE 13 19 7 10 1005.5 1005.2 0.0
16/07:30pm 40.6 35.1 -1.9 7 21.2 ESE 17 22 9 12 1005.3 1005.0 0.0

Other Formats:

Comma delimited format used in spreadsheet applications
http://www.bom.gov.au/fwo/IDS60801/IDS60801.95481.axf

JavaScript Object Notation format (JSON) in row-major order
http://www.bom.gov.au/fwo/IDS60801/IDS60801.95481.json